sensor_id;sensor_type;location;lat;lon;timestamp;P1;durP1;ratioP1;P2;durP2;ratioP2
976;SDS011;477;51.436;7.292;2024-01-25T00:00:24;12.10;;;1.80;;
976;SDS011;477;51.436;7.292;2024-01-25T00:02:53;7.40;;;1.85;;
976;SDS011;477;51.436;7.292;2024-01-25T00:05:22;7.50;;;2.72;;
976;SDS011;477;51.436;7.292;2024-01-25T00:07:52;19.95;;;4.03;;
976;SDS011;477;51.436;7.292;2024-01-25T00:10:20;6.60;;;2.60;;
976;SDS011;477;51.436;7.292;2024-01-25T00:12:49;3.45;;;1.35;;
976;SDS011;477;51.436;7.292;2024-01-25T00:15:19;5.63;;;2.47;;
976;SDS011;477;51.436;7.292;2024-01-25T00:17:48;4.85;;;1.88;;
976;SDS011;477;51.436;7.292;2024-01-25T00:20:17;12.40;;;2.97;;
976;SDS011;477;51.436;7.292;2024-01-25T00:22:46;6.50;;;1.70;;
976;SDS011;477;51.436;7.292;2024-01-25T00:25:15;1.50;;;0.40;;
976;SDS011;477;51.436;7.292;2024-01-25T00:27:44;2.10;;;1.40;;
976;SDS011;477;51.436;7.292;2024-01-25T00:30:14;1.42;;;0.90;;
976;SDS011;477;51.436;7.292;2024-01-25T00:32:44;2.00;;;0.80;;
976;SDS011;477;51.436;7.292;2024-01-25T00:35:13;1.30;;;0.50;;
976;SDS011;477;51.436;7.292;2024-01-25T00:37:45;3.53;;;1.48;;
976;SDS011;477;51.436;7.292;2024-01-25T00:40:15;2.70;;;0.90;;
976;SDS011;477;51.436;7.292;2024-01-25T00:42:46;4.80;;;0.95;;
976;SDS011;477;51.436;7.292;2024-01-25T00:45:20;2.80;;;1.50;;
976;SDS011;477;51.436;7.292;2024-01-25T00:47:52;3.00;;;1.70;;
976;SDS011;477;51.436;7.292;2024-01-25T00:50:21;2.60;;;0.70;;
976;SDS011;477;51.436;7.292;2024-01-25T00:52:52;9.40;;;1.97;;
976;SDS011;477;51.436;7.292;2024-01-25T00:55:22;1.00;;;0.30;;
976;SDS011;477;51.436;7.292;2024-01-25T00:57:52;1.95;;;0.70;;
976;SDS011;477;51.436;7.292;2024-01-25T01:00:23;1.85;;;0.65;;
976;SDS011;477;51.436;7.292;2024-01-25T01:02:58;1.40;;;0.67;;
976;SDS011;477;51.436;7.292;2024-01-25T01:05:30;2.08;;;0.70;;
976;SDS011;477;51.436;7.292;2024-01-25T01:08:01;5.60;;;1.55;;
976;SDS011;477;51.436;7.292;2024-01-25T01:10:31;1.00;;;0.30;;
976;SDS011;477;51.436;7.292;2024-01-25T01:12:59;3.30;;;1.77;;
976;SDS011;477;51.436;7.292;2024-01-25T01:15:28;4.57;;;1.77;;
976;SDS011;477;51.436;7.292;2024-01-25T01:17:59;1.00;;;0.40;;
976;SDS011;477;51.436;7.292;2024-01-25T01:20:28;1.10;;;0.30;;
976;SDS011;477;51.436;7.292;2024-01-25T01:22:57;1.00;;;0.30;;
976;SDS011;477;51.436;7.292;2024-01-25T01:25:25;1.00;;;0.30;;
976;SDS011;477;51.436;7.292;2024-01-25T01:27:54;1.50;;;1.10;;
976;SDS011;477;51.436;7.292;2024-01-25T01:30:23;1.00;;;0.30;;
976;SDS011;477;51.436;7.292;2024-01-25T01:32:51;3.10;;;1.20;;
976;SDS011;477;51.436;7.292;2024-01-25T01:35:21;3.10;;;1.50;;
976;SDS011;477;51.436;7.292;2024-01-25T01:37:50;1.10;;;0.60;;
976;SDS011;477;51.436;7.292;2024-01-25T01:40:19;5.10;;;1.30;;
976;SDS011;477;51.436;7.292;2024-01-25T01:42:49;1.50;;;0.70;;
976;SDS011;477;51.436;7.292;2024-01-25T01:45:18;1.00;;;0.30;;
976;SDS011;477;51.436;7.292;2024-01-25T01:47:47;7.30;;;1.00;;
976;SDS011;477;51.436;7.292;2024-01-25T01:50:16;2.17;;;0.82;;
976;SDS011;477;51.436;7.292;2024-01-25T01:52:47;1.00;;;0.30;;
976;SDS011;477;51.436;7.292;2024-01-25T01:55:17;4.63;;;1.42;;
976;SDS011;477;51.436;7.292;2024-01-25T01:57:45;2.28;;;2.03;;
976;SDS011;477;51.436;7.292;2024-01-25T02:00:15;5.40;;;1.80;;
976;SDS011;477;51.436;7.292;2024-01-25T02:02:44;5.60;;;2.03;;
976;SDS011;477;51.436;7.292;2024-01-25T02:05:14;2.78;;;1.10;;
976;SDS011;477;51.436;7.292;2024-01-25T02:07:42;2.10;;;1.00;;
976;SDS011;477;51.436;7.292;2024-01-25T02:10:15;2.20;;;0.50;;
976;SDS011;477;51.436;7.292;2024-01-25T02:12:45;26.75;;;2.33;;
976;SDS011;477;51.436;7.292;2024-01-25T02:15:13;7.80;;;2.20;;
976;SDS011;477;51.436;7.292;2024-01-25T02:17:42;1.70;;;0.75;;
976;SDS011;477;51.436;7.292;2024-01-25T02:20:12;7.13;;;1.63;;
976;SDS011;477;51.436;7.292;2024-01-25T02:22:43;4.00;;;1.13;;
976;SDS011;477;51.436;7.292;2024-01-25T02:25:11;1.70;;;0.50;;
976;SDS011;477;51.436;7.292;2024-01-25T02:27:40;5.10;;;0.70;;
976;SDS011;477;51.436;7.292;2024-01-25T02:30:09;2.30;;;1.50;;
976;SDS011;477;51.436;7.292;2024-01-25T02:32:38;2.92;;;1.20;;
976;SDS011;477;51.436;7.292;2024-01-25T02:35:07;2.50;;;0.90;;
976;SDS011;477;51.436;7.292;2024-01-25T02:37:37;10.73;;;2.92;;
976;SDS011;477;51.436;7.292;2024-01-25T02:40:10;10.73;;;2.05;;
976;SDS011;477;51.436;7.292;2024-01-25T02:42:40;7.20;;;1.35;;
976;SDS011;477;51.436;7.292;2024-01-25T02:45:09;3.20;;;0.98;;
976;SDS011;477;51.436;7.292;2024-01-25T02:47:38;10.18;;;2.78;;
976;SDS011;477;51.436;7.292;2024-01-25T02:50:08;2.20;;;0.60;;
976;SDS011;477;51.436;7.292;2024-01-25T02:52:38;2.60;;;0.80;;
976;SDS011;477;51.436;7.292;2024-01-25T02:55:09;5.40;;;1.50;;
976;SDS011;477;51.436;7.292;2024-01-25T02:57:37;1.10;;;0.50;;
976;SDS011;477;51.436;7.292;2024-01-25T03:00:07;6.40;;;1.33;;
976;SDS011;477;51.436;7.292;2024-01-25T03:02:37;4.40;;;0.70;;
976;SDS011;477;51.436;7.292;2024-01-25T03:05:05;2.60;;;0.60;;
976;SDS011;477;51.436;7.292;2024-01-25T03:07:35;6.30;;;1.90;;
976;SDS011;477;51.436;7.292;2024-01-25T03:10:04;6.00;;;1.90;;
976;SDS011;477;51.436;7.292;2024-01-25T03:12:35;2.97;;;1.17;;
976;SDS011;477;51.436;7.292;2024-01-25T03:15:04;1.05;;;0.40;;
976;SDS011;477;51.436;7.292;2024-01-25T03:17:35;5.47;;;1.35;;
976;SDS011;477;51.436;7.292;2024-01-25T03:20:06;1.10;;;0.40;;
976;SDS011;477;51.436;7.292;2024-01-25T03:22:36;1.00;;;0.30;;
976;SDS011;477;51.436;7.292;2024-01-25T03:25:06;2.10;;;0.60;;
976;SDS011;477;51.436;7.292;2024-01-25T03:27:38;1.08;;;0.40;;
976;SDS011;477;51.436;7.292;2024-01-25T03:30:07;25.77;;;2.17;;
976;SDS011;477;51.436;7.292;2024-01-25T03:32:37;4.55;;;1.40;;
976;SDS011;477;51.436;7.292;2024-01-25T03:35:06;1.40;;;0.70;;
976;SDS011;477;51.436;7.292;2024-01-25T03:37:36;2.40;;;0.93;;
976;SDS011;477;51.436;7.292;2024-01-25T03:40:05;1.20;;;0.50;;
976;SDS011;477;51.436;7.292;2024-01-25T03:42:35;1.30;;;0.50;;
976;SDS011;477;51.436;7.292;2024-01-25T03:45:07;3.60;;;1.17;;
976;SDS011;477;51.436;7.292;2024-01-25T03:47:36;2.20;;;0.60;;
976;SDS011;477;51.436;7.292;2024-01-25T03:50:05;5.63;;;1.42;;
976;SDS011;477;51.436;7.292;2024-01-25T03:52:34;2.87;;;0.40;;
976;SDS011;477;51.436;7.292;2024-01-25T03:55:03;1.10;;;0.40;;
976;SDS011;477;51.436;7.292;2024-01-25T03:57:33;6.20;;;2.10;;
976;SDS011;477;51.436;7.292;2024-01-25T04:00:09;12.52;;;1.67;;
976;SDS011;477;51.436;7.292;2024-01-25T04:02:40;7.30;;;2.20;;
976;SDS011;477;51.436;7.292;2024-01-25T04:05:08;3.10;;;0.68;;
976;SDS011;477;51.436;7.292;2024-01-25T04:07:37;3.88;;;1.05;;
976;SDS011;477;51.436;7.292;2024-01-25T04:10:06;1.30;;;0.40;;
976;SDS011;477;51.436;7.292;2024-01-25T04:12:35;1.00;;;0.30;;
976;SDS011;477;51.436;7.292;2024-01-25T04:15:04;1.00;;;0.30;;
976;SDS011;477;51.436;7.292;2024-01-25T04:17:36;1.00;;;0.30;;
976;SDS011;477;51.436;7.292;2024-01-25T04:20:05;1.00;;;0.30;;
976;SDS011;477;51.436;7.292;2024-01-25T04:22:35;1.00;;;0.30;;
976;SDS011;477;51.436;7.292;2024-01-25T04:25:04;1.00;;;0.30;;
976;SDS011;477;51.436;7.292;2024-01-25T04:27:33;2.10;;;0.80;;
976;SDS011;477;51.436;7.292;2024-01-25T04:30:02;1.10;;;0.60;;
976;SDS011;477;51.436;7.292;2024-01-25T04:32:33;1.00;;;0.30;;
976;SDS011;477;51.436;7.292;2024-01-25T04:35:02;1.10;;;0.40;;
976;SDS011;477;51.436;7.292;2024-01-25T04:37:31;1.00;;;0.40;;
976;SDS011;477;51.436;7.292;2024-01-25T04:40:00;1.00;;;0.30;;
976;SDS011;477;51.436;7.292;2024-01-25T04:42:30;1.00;;;0.40;;
976;SDS011;477;51.436;7.292;2024-01-25T04:44:58;1.63;;;0.70;;
976;SDS011;477;51.436;7.292;2024-01-25T04:47:27;1.27;;;0.65;;
976;SDS011;477;51.436;7.292;2024-01-25T04:49:57;1.00;;;0.30;;
976;SDS011;477;51.436;7.292;2024-01-25T04:52:26;1.60;;;0.90;;
976;SDS011;477;51.436;7.292;2024-01-25T04:54:55;8.70;;;0.90;;
976;SDS011;477;51.436;7.292;2024-01-25T04:57:23;1.00;;;0.30;;
976;SDS011;477;51.436;7.292;2024-01-25T04:59:52;1.00;;;0.40;;
976;SDS011;477;51.436;7.292;2024-01-25T05:02:21;1.00;;;0.30;;
976;SDS011;477;51.436;7.292;2024-01-25T05:04:49;2.10;;;1.10;;
976;SDS011;477;51.436;7.292;2024-01-25T05:07:19;1.00;;;0.30;;
976;SDS011;477;51.436;7.292;2024-01-25T05:09:56;1.00;;;0.30;;
976;SDS011;477;51.436;7.292;2024-01-25T05:12:24;1.00;;;0.30;;
976;SDS011;477;51.436;7.292;2024-01-25T05:14:53;1.00;;;0.30;;
976;SDS011;477;51.436;7.292;2024-01-25T05:17:22;3.20;;;0.95;;
976;SDS011;477;51.436;7.292;2024-01-25T05:19:51;1.00;;;0.30;;
976;SDS011;477;51.436;7.292;2024-01-25T05:22:24;1.00;;;0.30;;
976;SDS011;477;51.436;7.292;2024-01-25T05:24:52;3.20;;;1.20;;
976;SDS011;477;51.436;7.292;2024-01-25T05:27:21;2.20;;;0.80;;
976;SDS011;477;51.436;7.292;2024-01-25T05:29:51;1.10;;;0.60;;
976;SDS011;477;51.436;7.292;2024-01-25T05:32:19;1.00;;;0.30;;
976;SDS011;477;51.436;7.292;2024-01-25T05:34:49;2.80;;;1.00;;
976;SDS011;477;51.436;7.292;2024-01-25T05:37:18;1.00;;;0.30;;
976;SDS011;477;51.436;7.292;2024-01-25T05:39:48;1.00;;;0.35;;
976;SDS011;477;51.436;7.292;2024-01-25T05:42:17;3.10;;;0.70;;
976;SDS011;477;51.436;7.292;2024-01-25T05:44:46;1.00;;;0.30;;
976;SDS011;477;51.436;7.292;2024-01-25T05:47:16;9.20;;;1.20;;
976;SDS011;477;51.436;7.292;2024-01-25T05:49:47;1.20;;;0.60;;
976;SDS011;477;51.436;7.292;2024-01-25T05:52:15;1.00;;;0.30;;
976;SDS011;477;51.436;7.292;2024-01-25T05:54:44;1.00;;;0.30;;
976;SDS011;477;51.436;7.292;2024-01-25T05:57:14;1.00;;;0.30;;
976;SDS011;477;51.436;7.292;2024-01-25T05:59:43;1.00;;;0.30;;
976;SDS011;477;51.436;7.292;2024-01-25T06:02:12;1.00;;;0.30;;
976;SDS011;477;51.436;7.292;2024-01-25T06:04:42;1.00;;;0.30;;
976;SDS011;477;51.436;7.292;2024-01-25T06:07:10;1.00;;;0.30;;
976;SDS011;477;51.436;7.292;2024-01-25T06:09:41;3.00;;;1.10;;
976;SDS011;477;51.436;7.292;2024-01-25T06:12:10;1.00;;;0.30;;
976;SDS011;477;51.436;7.292;2024-01-25T06:14:40;2.08;;;0.82;;
976;SDS011;477;51.436;7.292;2024-01-25T06:17:08;1.00;;;0.30;;
976;SDS011;477;51.436;7.292;2024-01-25T06:19:38;7.20;;;0.60;;
976;SDS011;477;51.436;7.292;2024-01-25T06:22:07;6.00;;;2.00;;
976;SDS011;477;51.436;7.292;2024-01-25T06:24:36;1.00;;;0.30;;
976;SDS011;477;51.436;7.292;2024-01-25T06:27:06;1.00;;;0.30;;
976;SDS011;477;51.436;7.292;2024-01-25T06:29:37;1.00;;;0.30;;
976;SDS011;477;51.436;7.292;2024-01-25T06:32:07;1.00;;;0.30;;
976;SDS011;477;51.436;7.292;2024-01-25T06:34:47;1.00;;;0.30;;
976;SDS011;477;51.436;7.292;2024-01-25T06:37:16;1.00;;;0.30;;
976;SDS011;477;51.436;7.292;2024-01-25T06:39:45;1.00;;;0.30;;
976;SDS011;477;51.436;7.292;2024-01-25T06:42:14;1.00;;;0.40;;
976;SDS011;477;51.436;7.292;2024-01-25T06:44:44;1.00;;;0.30;;
976;SDS011;477;51.436;7.292;2024-01-25T06:47:15;1.00;;;0.30;;
976;SDS011;477;51.436;7.292;2024-01-25T06:49:47;1.00;;;0.30;;
976;SDS011;477;51.436;7.292;2024-01-25T06:52:19;1.00;;;0.30;;
976;SDS011;477;51.436;7.292;2024-01-25T06:54:47;1.00;;;0.30;;
976;SDS011;477;51.436;7.292;2024-01-25T06:57:17;1.00;;;0.30;;
976;SDS011;477;51.436;7.292;2024-01-25T06:59:47;1.00;;;0.30;;
976;SDS011;477;51.436;7.292;2024-01-25T07:02:19;2.10;;;0.80;;
976;SDS011;477;51.436;7.292;2024-01-25T07:04:48;1.10;;;0.60;;
976;SDS011;477;51.436;7.292;2024-01-25T07:07:21;1.00;;;0.30;;
976;SDS011;477;51.436;7.292;2024-01-25T07:09:49;1.00;;;0.30;;
976;SDS011;477;51.436;7.292;2024-01-25T07:12:19;1.00;;;0.30;;
976;SDS011;477;51.436;7.292;2024-01-25T07:14:47;1.00;;;0.30;;
976;SDS011;477;51.436;7.292;2024-01-25T07:17:16;1.00;;;0.30;;
976;SDS011;477;51.436;7.292;2024-01-25T07:19:46;1.00;;;0.30;;
976;SDS011;477;51.436;7.292;2024-01-25T07:22:16;1.00;;;0.30;;
976;SDS011;477;51.436;7.292;2024-01-25T07:24:45;1.00;;;0.30;;
976;SDS011;477;51.436;7.292;2024-01-25T07:27:13;1.00;;;0.30;;
976;SDS011;477;51.436;7.292;2024-01-25T07:29:43;1.00;;;0.30;;
976;SDS011;477;51.436;7.292;2024-01-25T07:32:12;1.00;;;0.30;;
976;SDS011;477;51.436;7.292;2024-01-25T07:34:41;1.00;;;0.30;;
976;SDS011;477;51.436;7.292;2024-01-25T07:37:13;1.00;;;0.30;;
976;SDS011;477;51.436;7.292;2024-01-25T07:39:45;1.00;;;0.50;;
976;SDS011;477;51.436;7.292;2024-01-25T07:42:13;1.00;;;0.30;;
976;SDS011;477;51.436;7.292;2024-01-25T07:44:42;1.00;;;0.30;;
976;SDS011;477;51.436;7.292;2024-01-25T07:47:13;1.00;;;0.30;;
976;SDS011;477;51.436;7.292;2024-01-25T07:49:42;1.00;;;0.30;;
976;SDS011;477;51.436;7.292;2024-01-25T07:52:13;1.00;;;0.30;;
976;SDS011;477;51.436;7.292;2024-01-25T07:54:41;1.00;;;0.30;;
976;SDS011;477;51.436;7.292;2024-01-25T07:57:12;1.00;;;0.30;;
976;SDS011;477;51.436;7.292;2024-01-25T07:59:40;1.30;;;0.70;;
976;SDS011;477;51.436;7.292;2024-01-25T08:02:09;1.00;;;0.30;;
976;SDS011;477;51.436;7.292;2024-01-25T08:04:38;1.00;;;0.30;;
976;SDS011;477;51.436;7.292;2024-01-25T08:07:07;1.50;;;0.70;;
976;SDS011;477;51.436;7.292;2024-01-25T08:09:39;1.00;;;0.30;;
976;SDS011;477;51.436;7.292;2024-01-25T08:12:08;1.00;;;0.30;;
976;SDS011;477;51.436;7.292;2024-01-25T08:14:36;1.70;;;0.90;;
976;SDS011;477;51.436;7.292;2024-01-25T08:17:05;1.10;;;0.50;;
976;SDS011;477;51.436;7.292;2024-01-25T08:19:35;1.00;;;0.30;;
976;SDS011;477;51.436;7.292;2024-01-25T08:22:05;2.17;;;1.38;;
976;SDS011;477;51.436;7.292;2024-01-25T08:24:34;1.92;;;1.17;;
976;SDS011;477;51.436;7.292;2024-01-25T08:27:04;3.33;;;1.57;;
976;SDS011;477;51.436;7.292;2024-01-25T08:29:39;1.80;;;1.50;;
976;SDS011;477;51.436;7.292;2024-01-25T08:32:09;1.70;;;1.02;;
976;SDS011;477;51.436;7.292;2024-01-25T08:34:37;1.10;;;0.50;;
976;SDS011;477;51.436;7.292;2024-01-25T08:37:06;3.42;;;1.60;;
976;SDS011;477;51.436;7.292;2024-01-25T08:39:37;8.48;;;2.85;;
976;SDS011;477;51.436;7.292;2024-01-25T08:42:07;4.80;;;3.17;;
976;SDS011;477;51.436;7.292;2024-01-25T08:44:37;6.38;;;2.35;;
976;SDS011;477;51.436;7.292;2024-01-25T08:47:10;1.50;;;0.90;;
976;SDS011;477;51.436;7.292;2024-01-25T08:49:40;1.40;;;0.80;;
976;SDS011;477;51.436;7.292;2024-01-25T08:52:09;7.38;;;3.42;;
976;SDS011;477;51.436;7.292;2024-01-25T08:54:38;4.38;;;1.67;;
976;SDS011;477;51.436;7.292;2024-01-25T08:57:08;1.90;;;1.50;;
976;SDS011;477;51.436;7.292;2024-01-25T08:59:37;5.70;;;2.00;;
976;SDS011;477;51.436;7.292;2024-01-25T09:02:06;4.03;;;1.27;;
976;SDS011;477;51.436;7.292;2024-01-25T09:04:35;1.10;;;0.40;;
976;SDS011;477;51.436;7.292;2024-01-25T09:07:07;5.10;;;2.67;;
976;SDS011;477;51.436;7.292;2024-01-25T09:09:36;8.20;;;2.58;;
976;SDS011;477;51.436;7.292;2024-01-25T09:12:06;1.00;;;0.30;;
976;SDS011;477;51.436;7.292;2024-01-25T09:14:38;14.10;;;3.00;;
976;SDS011;477;51.436;7.292;2024-01-25T09:17:07;1.30;;;0.95;;
976;SDS011;477;51.436;7.292;2024-01-25T09:19:38;1.05;;;0.38;;
976;SDS011;477;51.436;7.292;2024-01-25T09:22:06;3.80;;;0.80;;
976;SDS011;477;51.436;7.292;2024-01-25T09:24:36;2.40;;;1.23;;
976;SDS011;477;51.436;7.292;2024-01-25T09:27:06;6.88;;;3.50;;
976;SDS011;477;51.436;7.292;2024-01-25T09:29:37;4.53;;;2.20;;
976;SDS011;477;51.436;7.292;2024-01-25T09:32:06;1.20;;;0.40;;
976;SDS011;477;51.436;7.292;2024-01-25T09:34:36;1.60;;;1.30;;
976;SDS011;477;51.436;7.292;2024-01-25T09:37:08;7.10;;;3.40;;
976;SDS011;477;51.436;7.292;2024-01-25T09:39:39;1.33;;;0.68;;
976;SDS011;477;51.436;7.292;2024-01-25T09:42:10;4.60;;;1.95;;
976;SDS011;477;51.436;7.292;2024-01-25T09:44:39;18.88;;;6.53;;
976;SDS011;477;51.436;7.292;2024-01-25T09:47:09;8.00;;;4.00;;
976;SDS011;477;51.436;7.292;2024-01-25T09:49:38;2.40;;;1.80;;
976;SDS011;477;51.436;7.292;2024-01-25T09:52:12;7.20;;;3.70;;
976;SDS011;477;51.436;7.292;2024-01-25T09:54:42;13.18;;;4.22;;
976;SDS011;477;51.436;7.292;2024-01-25T09:57:13;8.80;;;1.85;;
976;SDS011;477;51.436;7.292;2024-01-25T09:59:44;9.07;;;4.32;;
976;SDS011;477;51.436;7.292;2024-01-25T10:02:13;13.98;;;5.68;;
976;SDS011;477;51.436;7.292;2024-01-25T10:04:42;3.03;;;1.85;;
976;SDS011;477;51.436;7.292;2024-01-25T10:10:05;5.40;;;3.20;;
976;SDS011;477;51.436;7.292;2024-01-25T10:12:37;1.50;;;1.00;;
976;SDS011;477;51.436;7.292;2024-01-25T10:15:09;17.30;;;6.30;;
976;SDS011;477;51.436;7.292;2024-01-25T10:17:41;1.60;;;1.10;;
976;SDS011;477;51.436;7.292;2024-01-25T10:20:13;5.20;;;2.60;;
976;SDS011;477;51.436;7.292;2024-01-25T10:22:43;11.45;;;2.95;;
976;SDS011;477;51.436;7.292;2024-01-25T10:25:12;13.17;;;3.43;;
976;SDS011;477;51.436;7.292;2024-01-25T10:27:44;10.73;;;4.25;;
976;SDS011;477;51.436;7.292;2024-01-25T10:30:13;7.57;;;1.95;;
976;SDS011;477;51.436;7.292;2024-01-25T10:32:42;3.75;;;3.45;;
976;SDS011;477;51.436;7.292;2024-01-25T10:35:13;10.40;;;4.40;;
976;SDS011;477;51.436;7.292;2024-01-25T10:37:47;14.52;;;5.32;;
976;SDS011;477;51.436;7.292;2024-01-25T10:40:17;5.53;;;3.17;;
976;SDS011;477;51.436;7.292;2024-01-25T10:42:49;13.93;;;3.95;;
976;SDS011;477;51.436;7.292;2024-01-25T10:45:18;5.33;;;2.50;;
976;SDS011;477;51.436;7.292;2024-01-25T10:47:49;23.23;;;5.33;;
976;SDS011;477;51.436;7.292;2024-01-25T10:50:18;5.40;;;3.10;;
976;SDS011;477;51.436;7.292;2024-01-25T10:52:47;9.80;;;3.60;;
976;SDS011;477;51.436;7.292;2024-01-25T10:55:17;6.82;;;2.40;;
976;SDS011;477;51.436;7.292;2024-01-25T10:57:47;18.15;;;5.65;;
976;SDS011;477;51.436;7.292;2024-01-25T11:00:20;28.20;;;5.22;;
976;SDS011;477;51.436;7.292;2024-01-25T11:02:50;9.77;;;2.83;;
976;SDS011;477;51.436;7.292;2024-01-25T11:05:19;12.95;;;3.67;;
976;SDS011;477;51.436;7.292;2024-01-25T11:07:52;3.95;;;2.50;;
976;SDS011;477;51.436;7.292;2024-01-25T11:10:24;14.05;;;4.78;;
976;SDS011;477;51.436;7.292;2024-01-25T11:12:56;12.77;;;4.53;;
976;SDS011;477;51.436;7.292;2024-01-25T11:15:30;9.77;;;3.72;;
976;SDS011;477;51.436;7.292;2024-01-25T11:18:01;13.15;;;4.57;;
976;SDS011;477;51.436;7.292;2024-01-25T11:20:33;15.02;;;6.65;;
976;SDS011;477;51.436;7.292;2024-01-25T11:23:05;12.95;;;5.10;;
976;SDS011;477;51.436;7.292;2024-01-25T11:25:36;8.77;;;4.35;;
976;SDS011;477;51.436;7.292;2024-01-25T11:28:07;6.50;;;3.70;;
976;SDS011;477;51.436;7.292;2024-01-25T11:30:38;4.35;;;2.83;;
976;SDS011;477;51.436;7.292;2024-01-25T11:33:08;2.47;;;1.48;;
976;SDS011;477;51.436;7.292;2024-01-25T11:35:37;6.32;;;2.75;;
976;SDS011;477;51.436;7.292;2024-01-25T11:38:08;5.10;;;2.60;;
976;SDS011;477;51.436;7.292;2024-01-25T11:40:37;1.95;;;1.58;;
976;SDS011;477;51.436;7.292;2024-01-25T11:43:07;11.50;;;3.00;;
976;SDS011;477;51.436;7.292;2024-01-25T11:45:41;1.10;;;0.50;;
976;SDS011;477;51.436;7.292;2024-01-25T11:48:15;4.47;;;1.55;;
976;SDS011;477;51.436;7.292;2024-01-25T11:50:46;11.20;;;4.38;;
976;SDS011;477;51.436;7.292;2024-01-25T11:53:16;7.43;;;2.30;;
976;SDS011;477;51.436;7.292;2024-01-25T11:55:47;6.60;;;2.08;;
976;SDS011;477;51.436;7.292;2024-01-25T11:58:18;9.55;;;2.95;;
976;SDS011;477;51.436;7.292;2024-01-25T12:00:48;11.00;;;2.22;;
976;SDS011;477;51.436;7.292;2024-01-25T12:03:18;12.02;;;3.10;;
976;SDS011;477;51.436;7.292;2024-01-25T12:05:47;11.68;;;3.75;;
976;SDS011;477;51.436;7.292;2024-01-25T12:08:18;1.88;;;1.45;;
976;SDS011;477;51.436;7.292;2024-01-25T12:10:48;6.10;;;2.15;;
976;SDS011;477;51.436;7.292;2024-01-25T12:13:18;10.50;;;2.30;;
976;SDS011;477;51.436;7.292;2024-01-25T12:15:47;4.22;;;2.50;;
976;SDS011;477;51.436;7.292;2024-01-25T12:18:16;6.38;;;1.95;;
976;SDS011;477;51.436;7.292;2024-01-25T12:20:45;4.40;;;1.90;;
976;SDS011;477;51.436;7.292;2024-01-25T12:23:14;3.70;;;1.10;;
976;SDS011;477;51.436;7.292;2024-01-25T12:25:44;1.50;;;0.70;;
976;SDS011;477;51.436;7.292;2024-01-25T12:28:13;2.78;;;2.05;;
976;SDS011;477;51.436;7.292;2024-01-25T12:30:44;4.00;;;2.05;;
976;SDS011;477;51.436;7.292;2024-01-25T12:33:13;1.10;;;0.50;;
976;SDS011;477;51.436;7.292;2024-01-25T12:35:46;7.00;;;3.28;;
976;SDS011;477;51.436;7.292;2024-01-25T12:38:15;8.52;;;3.08;;
976;SDS011;477;51.436;7.292;2024-01-25T12:40:45;4.40;;;1.20;;
976;SDS011;477;51.436;7.292;2024-01-25T12:43:18;5.53;;;1.83;;
976;SDS011;477;51.436;7.292;2024-01-25T12:45:50;2.30;;;1.60;;
976;SDS011;477;51.436;7.292;2024-01-25T12:48:23;4.50;;;2.03;;
976;SDS011;477;51.436;7.292;2024-01-25T12:50:52;6.70;;;2.80;;
976;SDS011;477;51.436;7.292;2024-01-25T12:53:21;14.60;;;2.80;;
976;SDS011;477;51.436;7.292;2024-01-25T12:55:51;7.30;;;2.85;;
976;SDS011;477;51.436;7.292;2024-01-25T12:58:20;14.43;;;4.13;;
976;SDS011;477;51.436;7.292;2024-01-25T13:00:50;14.05;;;4.32;;
976;SDS011;477;51.436;7.292;2024-01-25T13:03:19;4.60;;;2.45;;
976;SDS011;477;51.436;7.292;2024-01-25T13:05:49;1.80;;;0.60;;
976;SDS011;477;51.436;7.292;2024-01-25T13:08:18;5.03;;;2.03;;
976;SDS011;477;51.436;7.292;2024-01-25T13:10:47;19.02;;;6.38;;
976;SDS011;477;51.436;7.292;2024-01-25T13:13:16;9.05;;;2.88;;
976;SDS011;477;51.436;7.292;2024-01-25T13:15:45;5.90;;;3.63;;
976;SDS011;477;51.436;7.292;2024-01-25T13:18:15;3.88;;;1.73;;
976;SDS011;477;51.436;7.292;2024-01-25T13:20:44;14.52;;;4.85;;
976;SDS011;477;51.436;7.292;2024-01-25T13:23:13;7.35;;;4.13;;
976;SDS011;477;51.436;7.292;2024-01-25T13:25:41;6.72;;;3.28;;
976;SDS011;477;51.436;7.292;2024-01-25T13:28:11;9.40;;;1.90;;
976;SDS011;477;51.436;7.292;2024-01-25T13:30:40;3.00;;;1.98;;
976;SDS011;477;51.436;7.292;2024-01-25T13:33:09;4.90;;;1.60;;
976;SDS011;477;51.436;7.292;2024-01-25T13:35:39;3.20;;;2.20;;
976;SDS011;477;51.436;7.292;2024-01-25T13:38:07;2.72;;;1.15;;
976;SDS011;477;51.436;7.292;2024-01-25T13:40:41;8.85;;;2.05;;
976;SDS011;477;51.436;7.292;2024-01-25T13:43:11;4.30;;;1.75;;
976;SDS011;477;51.436;7.292;2024-01-25T13:45:40;1.60;;;0.90;;
976;SDS011;477;51.436;7.292;2024-01-25T13:48:09;2.80;;;1.40;;
976;SDS011;477;51.436;7.292;2024-01-25T13:50:40;13.10;;;3.30;;
976;SDS011;477;51.436;7.292;2024-01-25T13:53:09;1.00;;;0.30;;
976;SDS011;477;51.436;7.292;2024-01-25T13:55:38;8.55;;;1.67;;
976;SDS011;477;51.436;7.292;2024-01-25T13:58:07;10.38;;;4.30;;
976;SDS011;477;51.436;7.292;2024-01-25T14:00:38;3.10;;;1.50;;
976;SDS011;477;51.436;7.292;2024-01-25T14:03:07;6.30;;;2.83;;
976;SDS011;477;51.436;7.292;2024-01-25T14:05:36;13.52;;;3.13;;
976;SDS011;477;51.436;7.292;2024-01-25T14:08:08;1.00;;;0.30;;
976;SDS011;477;51.436;7.292;2024-01-25T14:10:36;3.83;;;1.90;;
976;SDS011;477;51.436;7.292;2024-01-25T14:13:05;4.35;;;1.63;;
976;SDS011;477;51.436;7.292;2024-01-25T14:15:34;1.30;;;0.57;;
976;SDS011;477;51.436;7.292;2024-01-25T14:18:06;1.08;;;0.38;;
976;SDS011;477;51.436;7.292;2024-01-25T14:20:38;1.50;;;0.50;;
976;SDS011;477;51.436;7.292;2024-01-25T14:23:08;1.55;;;1.10;;
976;SDS011;477;51.436;7.292;2024-01-25T14:25:38;2.83;;;2.30;;
976;SDS011;477;51.436;7.292;2024-01-25T14:28:07;3.40;;;1.20;;
976;SDS011;477;51.436;7.292;2024-01-25T14:30:38;1.67;;;0.45;;
976;SDS011;477;51.436;7.292;2024-01-25T14:33:07;2.20;;;1.20;;
976;SDS011;477;51.436;7.292;2024-01-25T14:35:36;2.60;;;0.70;;
976;SDS011;477;51.436;7.292;2024-01-25T14:38:05;4.60;;;1.85;;
976;SDS011;477;51.436;7.292;2024-01-25T14:40:35;11.10;;;3.17;;
976;SDS011;477;51.436;7.292;2024-01-25T14:43:23;6.65;;;2.65;;
976;SDS011;477;51.436;7.292;2024-01-25T14:45:52;1.00;;;0.30;;
976;SDS011;477;51.436;7.292;2024-01-25T14:48:22;1.00;;;0.30;;
976;SDS011;477;51.436;7.292;2024-01-25T14:50:52;2.28;;;1.17;;
976;SDS011;477;51.436;7.292;2024-01-25T14:53:20;3.40;;;0.70;;
976;SDS011;477;51.436;7.292;2024-01-25T14:55:51;1.10;;;0.32;;
976;SDS011;477;51.436;7.292;2024-01-25T14:58:19;2.80;;;1.42;;
976;SDS011;477;51.436;7.292;2024-01-25T15:00:49;2.75;;;1.40;;
976;SDS011;477;51.436;7.292;2024-01-25T15:03:19;4.90;;;1.00;;
976;SDS011;477;51.436;7.292;2024-01-25T15:05:48;3.90;;;1.00;;
976;SDS011;477;51.436;7.292;2024-01-25T15:08:17;3.85;;;1.58;;
976;SDS011;477;51.436;7.292;2024-01-25T15:10:46;1.00;;;0.30;;
976;SDS011;477;51.436;7.292;2024-01-25T15:13:16;1.00;;;0.30;;
976;SDS011;477;51.436;7.292;2024-01-25T15:15:44;1.70;;;0.80;;
976;SDS011;477;51.436;7.292;2024-01-25T15:18:13;1.00;;;0.30;;
976;SDS011;477;51.436;7.292;2024-01-25T15:20:45;1.00;;;0.30;;
976;SDS011;477;51.436;7.292;2024-01-25T15:23:14;1.00;;;0.30;;
976;SDS011;477;51.436;7.292;2024-01-25T15:25:43;1.00;;;0.30;;
976;SDS011;477;51.436;7.292;2024-01-25T15:28:12;1.00;;;0.30;;
976;SDS011;477;51.436;7.292;2024-01-25T15:30:46;1.90;;;1.30;;
976;SDS011;477;51.436;7.292;2024-01-25T15:33:15;1.50;;;0.80;;
976;SDS011;477;51.436;7.292;2024-01-25T15:35:45;1.00;;;0.30;;
976;SDS011;477;51.436;7.292;2024-01-25T15:38:15;1.00;;;0.30;;
976;SDS011;477;51.436;7.292;2024-01-25T15:40:45;4.30;;;0.90;;
976;SDS011;477;51.436;7.292;2024-01-25T15:43:13;1.00;;;0.30;;
976;SDS011;477;51.436;7.292;2024-01-25T15:45:42;1.00;;;0.30;;
976;SDS011;477;51.436;7.292;2024-01-25T15:48:12;1.00;;;0.40;;
976;SDS011;477;51.436;7.292;2024-01-25T15:50:41;4.53;;;1.30;;
976;SDS011;477;51.436;7.292;2024-01-25T15:53:10;2.00;;;0.80;;
976;SDS011;477;51.436;7.292;2024-01-25T15:55:41;1.00;;;0.30;;
976;SDS011;477;51.436;7.292;2024-01-25T15:58:10;1.00;;;0.30;;
976;SDS011;477;51.436;7.292;2024-01-25T16:00:38;1.00;;;0.30;;
976;SDS011;477;51.436;7.292;2024-01-25T16:03:09;1.00;;;0.30;;